Terminal Aerodrome Forecast
Issued by NWS

Home | Current Version | Previous Version | Graphics & Text | Print | Product List | Glossary On
Versions: 1 2 3 4 5 6 7 8 9 10 11 12 13 14 15 16 17 18
128
FTUS43 KUNR 251720
TAFGCC
TAF
KGCC 251720Z 2518/2618 36012KT P6SM BKN100
     FM260400 36010KT 5SM -RA BR OVC010
     FM260800 36010KT 2SM -SN BR OVC006=

USA.gov is the U.S. government's official web portal to all federal, state and local government web resources and services.